Data for 01/25/2018

Time Sea-Level Adjusted Pressure Absolute Pressure Temperature Relative Humidity Dew Point   
(mb) (inHg) (mb) (inHg) (C) (F) (%) (C) (F)
00:05 1011 29.85 840 24.81 4.4 39.8 33 -10.5 13.2
00:10 1011 29.85 840 24.81 4 39.1 34 -10.5 13.1
00:15 1011 29.85 840 24.81 4.1 39.3 33 -10.7 12.8
00:20 1011 29.85 840 24.81 4.1 39.3 33 -10.9 12.4
00:25 1011 29.85 840 24.81 4 39.2 33 -10.7 12.7
00:30 1011 29.85 840 24.81 3.8 38.9 34 -10.6 12.9
00:35 1011 29.85 840 24.81 3.8 38.8 35 -10.5 13.2
00:40 1010 29.83 840 24.81 3.8 38.8 33 -10.9 12.3
00:45 1010 29.83 840 24.81 3.9 39 33 -10.9 12.3
00:50 1010 29.83 840 24.81 4 39.1 34 -10.7 12.7
00:55 1010 29.83 840 24.81 3.8 38.8 35 -10.3 13.5
01:00 1010 29.83 840 24.81 3.6 38.5 37 -9.9 14.1
01:05 1010 29.83 840 24.81 3.5 38.3 35 -10.7 12.7
01:10 1010 29.83 839 24.78 3.6 38.5 35 -10.3 13.4
01:15 1010 29.83 839 24.78 3.6 38.6 34 -10.7 12.7
01:20 1010 29.83 839 24.78 3.9 39 33 -10.9 12.4
01:25 1010 29.83 839 24.78 3.7 38.7 36 -10.2 13.7
01:30 1010 29.83 839 24.78 3.4 38.1 36 -10.4 13.2
01:35 1010 29.83 839 24.78 3.4 38 37 -10.1 13.7
01:40 1010 29.83 839 24.78 3.1 37.6 37 -10.2 13.6
01:45 1010 29.83 839 24.78 3.1 37.6 37 -10.2 13.6
01:50 1010 29.83 839 24.78 3.2 37.8 38 -9.8 14.3
01:55 1010 29.83 839 24.78 3.1 37.6 37 -10.1 13.8
02:00 1010 29.83 839 24.78 3 37.4 37 -10.2 13.6
02:05 1010 29.83 839 24.78 2.9 37.2 38 -10 14
02:10 1010 29.83 839 24.78 2.7 36.9 37 -10.4 13.3
02:15 1010 29.83 839 24.78 2.8 37 38 -10.2 13.7
02:20 1010 29.83 839 24.78 2.8 37 37 -10.4 13.4
02:25 1010 29.83 839 24.78 2.8 37 37 -10.5 13.1
02:30 1010 29.83 839 24.78 2.7 36.9 37 -10.5 13.1
02:35 1010 29.83 839 24.78 2.7 36.8 38 -10.4 13.3
02:40 1010 29.83 839 24.78 2.6 36.6 38 -10.3 13.5
02:45 1009 29.8 839 24.78 2.5 36.5 39 -10 13.9
02:50 1009 29.8 839 24.78 2.5 36.5 38 -10.5 13.1
02:55 1009 29.8 838 24.75 2.6 36.6 38 -10.5 13.1
03:00 1009 29.8 838 24.75 2.7 36.8 37 -10.6 12.8
03:05 1009 29.8 838 24.75 2.5 36.6 38 -10.3 13.5
03:10 1009 29.8 838 24.75 2.5 36.5 37 -10.8 12.5
03:15 1009 29.8 838 24.75 2.5 36.4 38 -10.5 13.1
03:20 1009 29.8 838 24.75 2.2 35.9 39 -10.3 13.5
03:25 1009 29.8 838 24.75 1.7 35 43 -9.7 14.5
03:30 1009 29.8 838 24.75 1.5 34.7 39 -11.1 11.9
03:35 1009 29.8 838 24.75 2.1 35.8 37 -11 12.2
03:40 1009 29.8 838 24.75 2.3 36.2 38 -10.7 12.7
03:45 1009 29.8 838 24.75 2.4 36.3 37 -10.7 12.7
03:50 1009 29.8 838 24.75 2.2 35.9 38 -10.8 12.6
03:55 1009 29.8 838 24.75 2.3 36.2 38 -10.6 13
04:00 1009 29.8 838 24.75 2.1 35.8 38 -10.9 12.4
04:05 1009 29.8 838 24.75 2 35.6 38 -10.9 12.4
04:10 1008 29.77 838 24.75 1.7 35.1 37 -11.4 11.5
04:15 1008 29.77 838 24.75 1.8 35.2 37 -11.4 11.5
04:20 1008 29.77 838 24.75 1.9 35.4 38 -10.8 12.5
04:25 1008 29.77 837 24.72 1.7 35 40 -10.6 12.9
04:30 1008 29.77 837 24.72 1.5 34.7 39 -11 12.3
04:35 1008 29.77 837 24.72 1.5 34.7 40 -10.8 12.6
04:40 1008 29.77 837 24.72 1.5 34.7 39 -11 12.2
04:45 1008 29.77 837 24.72 1.7 35.1 38 -11.2 11.9
04:50 1008 29.77 837 24.72 1.8 35.2 38 -11 12.3
04:55 1008 29.77 837 24.72 1.7 35.1 39 -10.7 12.7
05:00 1008 29.77 837 24.72 1.7 35.1 38 -11.3 11.6
05:05 1008 29.77 837 24.72 2.3 36.2 33 -12.3 9.8
05:10 1008 29.77 837 24.72 3 37.4 32 -12.4 9.7
05:15 1008 29.77 837 24.72 3.2 37.8 33 -11.8 10.8
05:20 1008 29.77 837 24.72 3 37.3 33 -11.7 10.9
05:25 1008 29.77 837 24.72 3 37.4 33 -11.7 11
05:30 1008 29.77 837 24.72 2.7 36.9 35 -11.4 11.5
05:35 1008 29.77 837 24.72 2.3 36.2 34 -12.2 10.1
05:40 1008 29.77 837 24.72 2.5 36.6 34 -11.9 10.6
05:45 1008 29.77 837 24.72 2.8 37 32 -12.2 10
05:50 1008 29.77 837 24.72 2.8 37 33 -11.8 10.7
05:55 1008 29.77 837 24.72 2.6 36.7 34 -11.8 10.7
06:00 1008 29.77 837 24.72 2.5 36.5 34 -12 10.4
06:05 1008 29.77 837 24.72 2.4 36.3 36 -11.1 12.1
06:10 1007 29.74 837 24.72 2 35.5 37 -11.4 11.4
06:15 1007 29.74 837 24.72 1.9 35.4 37 -11.5 11.4
06:20 1007 29.74 837 24.72 1.9 35.4 38 -11.2 11.9
06:25 1007 29.74 836 24.69 1.7 35.1 37 -11.6 11.1
06:30 1007 29.74 836 24.69 1.8 35.3 39 -10.8 12.5
06:35 1007 29.74 836 24.69 1.5 34.6 40 -10.8 12.5
06:40 1007 29.74 836 24.69 1.3 34.4 41 -10.6 13
06:45 1007 29.74 836 24.69 1.2 34.2 42 -10.3 13.4
06:50 1007 29.74 836 24.69 1.1 34 40 -10.9 12.3
06:55 1007 29.74 836 24.69 1.3 34.3 39 -11.2 11.8
07:00 1007 29.74 836 24.69 1.3 34.4 40 -10.9 12.4
07:05 1007 29.74 836 24.69 1.3 34.4 39 -11.1 12.1
07:10 1007 29.74 836 24.69 1.3 34.3 41 -10.5 13.1
07:15 1007 29.74 836 24.69 0.9 33.6 40 -11.3 11.6
07:20 1007 29.74 836 24.69 1.1 34.1 40 -10.9 12.3
07:25 1007 29.74 836 24.69 1 33.8 40 -11.2 11.9
07:30 1007 29.74 836 24.69 1 33.8 40 -11.1 12
07:35 1007 29.74 836 24.69 0.9 33.7 41 -11 12.2
07:40 1007 29.74 836 24.69 0.7 33.2 42 -10.9 12.5
07:45 1007 29.74 836 24.69 0.8 33.5 42 -10.6 13
07:50 1007 29.74 836 24.69 0.8 33.4 39 -11.7 10.9
07:55 1007 29.74 836 24.69 1.5 34.7 38 -11.3 11.6
08:00 1007 29.74 836 24.69 1.5 34.7 38 -11.3 11.7
08:05 1007 29.74 836 24.69 1.2 34.2 40 -10.8 12.6
08:10 1007 29.74 836 24.69 1.2 34.2 39 -11.4 11.5
08:15 1007 29.74 836 24.69 1.2 34.2 39 -11.2 11.9
08:20 1007 29.74 836 24.69 1.3 34.3 39 -11.3 11.6
08:25 1007 29.74 836 24.69 1.2 34.1 40 -11 12.3
08:30 1007 29.74 836 24.69 1.4 34.6 37 -11.8 10.8
08:35 1006 29.71 836 24.69 1.9 35.4 38 -11.1 11.9
08:40 1007 29.74 836 24.69 1.7 35 38 -11.3 11.7
08:45 1007 29.74 836 24.69 1.7 35.1 37 -11.5 11.3
08:50 1006 29.71 836 24.69 1.9 35.3 37 -11.2 11.8
08:55 1006 29.71 836 24.69 1.8 35.2 37 -11.3 11.7
09:00 1007 29.74 836 24.69 1.9 35.4 37 -11.3 11.7
09:05 1007 29.74 836 24.69 2 35.6 37 -11.2 11.9
09:10 1007 29.74 836 24.69 2.2 35.9 37 -11.1 12.1
09:15 1007 29.74 836 24.69 2 35.5 39 -10.7 12.8
09:20 1006 29.71 836 24.69 1.9 35.4 39 -10.7 12.8
09:25 1007 29.74 836 24.69 1.9 35.5 39 -10.8 12.6
09:30 1007 29.74 836 24.69 2.3 36.1 38 -10.7 12.8
09:35 1007 29.74 836 24.69 2.3 36.1 37 -10.9 12.5
09:40 1007 29.74 836 24.69 2.5 36.5 36 -11.2 11.9
09:45 1007 29.74 836 24.69 2.6 36.7 36 -10.9 12.3
09:50 1007 29.74 836 24.69 2.5 36.6 36 -10.9 12.3
09:55 1007 29.74 836 24.69 2.7 36.8 36 -11 12.2
10:00 1007 29.74 836 24.69 2.8 37 36 -10.9 12.4
10:05 1007 29.74 836 24.69 3 37.4 35 -11 12.2
10:10 1007 29.74 836 24.69 3.4 38.1 35 -10.6 13
10:15 1007 29.74 836 24.69 3.6 38.4 34 -10.9 12.4
10:20 1007 29.74 836 24.69 4.1 39.4 35 -10.2 13.6
10:25 1007 29.74 836 24.69 5 41 32 -10.3 13.5
10:30 1007 29.74 836 24.69 4.6 40.2 34 -9.9 14.1
10:35 1007 29.74 836 24.69 4.8 40.6 34 -9.6 14.7
10:40 1007 29.74 836 24.69 4.9 40.8 36 -9.1 15.6
10:45 1007 29.74 836 24.69 5.4 41.6 33 -9.7 14.5
10:50 1007 29.74 836 24.69 5.8 42.4 36 -8.2 17.3
10:55 1007 29.74 836 24.69 5.4 41.7 39 -7.5 18.5
11:00 1007 29.74 836 24.69 5.2 41.4 40 -7.2 19.1
11:05 1007 29.74 836 24.69 5.3 41.6 42 -6.5 20.3
11:10 1007 29.74 836 24.69 5.5 41.8 42 -6.4 20.4
11:15 1007 29.74 836 24.69 5.4 41.7 45 -5.5 22.1
11:20 1006 29.71 836 24.69 5.3 41.6 45 -5.7 21.8
11:25 1006 29.71 836 24.69 5.2 41.4 46 -5.4 22.3
11:30 1006 29.71 836 24.69 5.2 41.4 48 -4.9 23.2
11:35 1006 29.71 836 24.69 5.1 41.1 47 -5.2 22.6
11:40 1006 29.71 835 24.66 5.1 41.2 45 -5.8 21.5
11:45 1006 29.71 835 24.66 5 41 46 -5.6 21.9
11:50 1006 29.71 835 24.66 5 41.1 45 -5.8 21.5
11:55 1006 29.71 835 24.66 5.2 41.4 44 -6.2 20.9
12:00 1006 29.71 835 24.66 5.2 41.4 44 -6 21.1
12:05 1006 29.71 835 24.66 5 41 45 -6.1 21.1
12:10 1006 29.71 835 24.66 4.9 40.8 45 -6.1 21
12:15 1006 29.71 835 24.66 4.7 40.4 46 -5.9 21.4
12:20 1006 29.71 835 24.66 4.7 40.4 46 -5.9 21.3
12:25 1006 29.71 835 24.66 4.6 40.3 48 -5.5 22.1
12:30 1006 29.71 835 24.66 4.8 40.7 46 -5.7 21.8
12:35 1006 29.71 835 24.66 4.9 40.8 46 -5.7 21.7
12:40 1006 29.71 835 24.66 5.2 41.3 43 -6.4 20.5
12:45 1005 29.68 835 24.66 5.3 41.6 42 -6.5 20.3
12:50 1005 29.68 834 24.63 5.4 41.8 44 -6 21.2
12:55 1005 29.68 834 24.63 5.2 41.3 44 -6 21.2
13:00 1005 29.68 834 24.63 5 41 45 -6 21.1
13:05 1005 29.68 834 24.63 4.9 40.8 44 -6.2 20.8
13:10 1005 29.68 834 24.63 4.9 40.8 45 -6 21.3
13:15 1005 29.68 834 24.63 4.9 40.8 43 -6.6 20.2
13:20 1005 29.68 834 24.63 5 41 44 -6.2 20.9
13:25 1004 29.65 834 24.63 5 41 44 -6.2 20.8
13:30 1004 29.65 834 24.63 5.1 41.1 40 -7.5 18.5
13:35 1004 29.65 833 24.6 5.4 41.7 38 -7.7 18.2
13:40 1004 29.65 834 24.63 5.9 42.7 38 -7.5 18.6
13:45 1004 29.65 834 24.63 6.8 44.2 34 -8 17.6
13:50 1004 29.65 834 24.63 7.6 45.6 37 -6.3 20.7
13:55 1004 29.65 834 24.63 6.4 43.5 39 -6.5 20.4
14:00 1004 29.65 833 24.6 6 42.7 41 -6.4 20.4
14:05 1004 29.65 833 24.6 6 42.8 40 -6.5 20.2
14:10 1004 29.65 834 24.63 6.3 43.4 39 -6.6 20.1
14:15 1004 29.65 834 24.63 7 44.5 41 -5.4 22.3
14:20 1004 29.65 834 24.63 6.4 43.6 40 -6.1 21
14:25 1004 29.65 834 24.63 6.4 43.5 40 -6.2 20.8
14:30 1005 29.68 834 24.63 6.2 43.1 42 -5.6 21.8
14:35 1004 29.65 834 24.63 5.8 42.4 41 -6.4 20.5
14:40 1004 29.65 834 24.63 5.9 42.7 41 -6.5 20.3
14:45 1004 29.65 834 24.63 6.3 43.3 40 -6.3 20.6
14:50 1004 29.65 834 24.63 6.5 43.7 37 -7.1 19.2
14:55 1004 29.65 834 24.63 6.9 44.4 36 -7.1 19.2
15:00 1004 29.65 834 24.63 7.1 44.7 37 -6.5 20.3
15:05 1005 29.68 834 24.63 6.8 44.3 38 -6.5 20.2
15:10 1005 29.68 834 24.63 6.1 43 39 -6.7 20
15:15 1005 29.68 834 24.63 5.6 42.1 41 -6.7 19.9
15:20 1005 29.68 834 24.63 5.4 41.8 43 -6.1 20.9
15:25 1005 29.68 834 24.63 5.2 41.4 42 -6.8 19.8
15:30 1005 29.68 834 24.63 5.1 41.1 47 -5.3 22.5
15:35 1006 29.71 835 24.66 3.4 38.1 69 -1.8 28.8
15:40 1006 29.71 835 24.66 0.6 33.1 80 -2.5 27.5
15:45 1006 29.71 836 24.69 -0.4 31.2 84 -2.9 26.8
15:50 1006 29.71 836 24.69 -0.9 30.4 86 -2.9 26.7
15:55 1007 29.74 836 24.69 -1.3 29.7 89 -2.9 26.8
16:00 1007 29.74 836 24.69 -1.4 29.5 89 -2.9 26.7
16:05 1007 29.74 836 24.69 -1.4 29.5 90 -2.8 27
16:10 1007 29.74 836 24.69 -1.4 29.5 90 -2.8 27
16:15 1007 29.74 837 24.72 -1.4 29.4 91 -2.8 27
16:20 1008 29.77 837 24.72 -1.4 29.4 91 -2.7 27.2
16:25 1008 29.77 837 24.72 -1.4 29.5 91 -2.6 27.3
16:30 1008 29.77 837 24.72 -1.3 29.6 92 -2.5 27.4
16:35 1008 29.77 837 24.72 -1.3 29.6 91 -2.6 27.3
16:40 1008 29.77 837 24.72 -1.4 29.4 92 -2.6 27.3
16:45 1008 29.77 837 24.72 -1.5 29.4 92 -2.7 27.2
16:50 1008 29.77 838 24.75 -1.4 29.4 92 -2.6 27.4
16:55 1008 29.77 838 24.75 -1.4 29.4 92 -2.6 27.4
17:00 1008 29.77 838 24.75 -1.4 29.4 92 -2.6 27.4
17:05 1008 29.77 838 24.75 -1.3 29.6 92 -2.4 27.6
17:10 1009 29.8 838 24.75 -1.3 29.7 92 -2.4 27.6
17:15 1009 29.8 838 24.75 -1.3 29.7 92 -2.5 27.6
17:20 1009 29.8 838 24.75 -1.3 29.7 92 -2.5 27.5
17:25 1009 29.8 838 24.75 -1.3 29.7 92 -2.4 27.6
17:30 1009 29.8 838 24.75 -1.3 29.7 92 -2.4 27.6
17:35 1009 29.8 838 24.75 -1.3 29.7 91 -2.5 27.5
17:40 1009 29.8 838 24.75 -1.4 29.6 92 -2.5 27.4
17:45 1009 29.8 838 24.75 -1.5 29.4 91 -2.7 27.1
17:50 1009 29.8 838 24.75 -1.5 29.3 92 -2.7 27.1
17:55 1009 29.8 839 24.78 -1.5 29.3 92 -2.7 27.1
18:00 1009 29.8 839 24.78 -1.5 29.4 91 -2.7 27.2
18:05 1009 29.8 839 24.78 -1.4 29.4 91 -2.7 27.1
18:10 1009 29.8 839 24.78 -1.5 29.3 91 -2.8 27
18:15 1009 29.8 839 24.78 -1.5 29.3 90 -2.9 26.7
18:20 1009 29.8 839 24.78 -1.6 29.1 90 -3 26.6
18:25 1009 29.8 839 24.78 -1.7 28.9 90 -3.1 26.4
18:30 1009 29.8 839 24.78 -1.7 28.9 90 -3.2 26.3
18:35 1009 29.8 839 24.78 -1.8 28.7 90 -3.3 26.1
18:40 1009 29.8 839 24.78 -1.8 28.7 89 -3.3 26
18:45 1009 29.8 839 24.78 -1.8 28.8 89 -3.3 26
18:50 1009 29.8 839 24.78 -1.8 28.8 89 -3.3 26.1
18:55 1010 29.83 839 24.78 -1.8 28.8 89 -3.4 25.9
19:00 1010 29.83 839 24.78 -1.8 28.8 89 -3.4 25.9
19:05 1010 29.83 839 24.78 -1.8 28.8 88 -3.4 25.8
19:10 1010 29.83 839 24.78 -1.8 28.8 88 -3.5 25.6
19:15 1010 29.83 839 24.78 -1.8 28.7 87 -3.7 25.4
19:20 1010 29.83 839 24.78 -1.8 28.7 87 -3.7 25.3
19:25 1010 29.83 839 24.78 -1.8 28.7 87 -3.7 25.3
19:30 1010 29.83 839 24.78 -1.9 28.6 87 -3.8 25.2
19:35 1010 29.83 839 24.78 -2 28.5 87 -3.8 25.1
19:40 1010 29.83 839 24.78 -2 28.4 87 -3.9 25.1
19:45 1010 29.83 839 24.78 -2.1 28.2 87 -3.9 24.9
19:50 1010 29.83 839 24.78 -2.1 28.2 87 -4 24.8
19:55 1010 29.83 839 24.78 -2.4 27.7 89 -4 24.8
20:00 1010 29.83 839 24.78 -2.4 27.7 89 -3.9 24.9
20:05 1010 29.83 839 24.78 -2.4 27.6 90 -3.9 24.9
20:10 1010 29.83 839 24.78 -2.4 27.7 89 -3.9 25
20:15 1010 29.83 839 24.78 -2.4 27.7 89 -4 24.8
20:20 1010 29.83 839 24.78 -2.3 27.9 89 -3.9 24.9
20:25 1010 29.83 839 24.78 -2.3 27.9 88 -3.9 24.9
20:30 1010 29.83 839 24.78 -2.1 28.1 88 -3.8 25.2
20:35 1010 29.83 839 24.78 -2.1 28.2 88 -3.8 25.2
20:40 1010 29.83 839 24.78 -2.2 28.1 88 -3.9 25.1
20:45 1010 29.83 839 24.78 -2.3 27.9 89 -3.9 25
20:50 1010 29.83 839 24.78 -2.3 27.9 89 -3.8 25.1
20:55 1010 29.83 839 24.78 -2.3 27.8 89 -3.9 25
21:00 1010 29.83 839 24.78 -2.4 27.6 90 -3.9 25
21:05 1010 29.83 839 24.78 -2.4 27.7 90 -3.8 25.1
21:10 1010 29.83 839 24.78 -2.3 27.8 90 -3.8 25.2
21:15 1010 29.83 839 24.78 -2.3 27.8 90 -3.8 25.2
21:20 1010 29.83 839 24.78 -2.4 27.7 90 -3.8 25.1
21:25 1010 29.83 839 24.78 -2.5 27.5 90 -4 24.9
21:30 1010 29.83 839 24.78 -2.6 27.3 90 -4 24.7
21:35 1010 29.83 839 24.78 -2.7 27.2 90 -4 24.7
21:40 1010 29.83 840 24.81 -2.6 27.4 90 -4 24.8
21:45 1010 29.83 840 24.81 -2.4 27.7 89 -4 24.9
21:50 1011 29.85 840 24.81 -2.3 27.9 88 -4 24.9
21:55 1011 29.85 840 24.81 -2.2 28.1 87 -4 24.8
22:00 1011 29.85 840 24.81 -2 28.4 85 -4.1 24.6
22:05 1011 29.85 840 24.81 -2 28.5 83 -4.4 24
22:10 1011 29.85 840 24.81 -1.8 28.7 81 -4.7 23.5
22:15 1011 29.85 840 24.81 -1.6 29 80 -4.7 23.5
22:20 1011 29.85 840 24.81 -1.6 29 79 -4.9 23.2
22:25 1011 29.85 840 24.81 -1.8 28.8 79 -4.9 23.1
22:30 1011 29.85 841 24.83 -2.2 28.1 78 -5.5 22.2
22:35 1011 29.85 841 24.83 -2.5 27.6 80 -5.5 22.1
22:40 1012 29.88 841 24.83 -2.7 27.1 81 -5.6 21.9
22:45 1012 29.88 841 24.83 -2.9 26.8 81 -5.7 21.8
22:50 1012 29.88 841 24.83 -3.2 26.3 82 -5.8 21.6
22:55 1012 29.88 841 24.83 -3.3 26 83 -5.8 21.6
23:00 1012 29.88 841 24.83 -3.4 25.8 84 -5.8 21.5
23:05 1012 29.88 841 24.83 -3.5 25.7 84 -5.8 21.6
23:10 1012 29.88 841 24.83 -3.6 25.6 85 -5.8 21.6
23:15 1012 29.88 841 24.83 -3.7 25.4 85 -5.8 21.5
23:20 1012 29.88 841 24.83 -3.9 25 86 -5.8 21.5
23:25 1012 29.88 841 24.83 -4.1 24.7 88 -5.8 21.5
23:30 1012 29.88 841 24.83 -4.2 24.5 87 -6 21.2
23:35 1012 29.88 841 24.83 -4.2 24.4 87 -6.1 21.1
23:40 1012 29.88 841 24.83 -4.1 24.5 87 -6 21.1
23:45 1012 29.88 841 24.83 -4.1 24.7 87 -6 21.2
23:50 1012 29.88 841 24.83 -4.1 24.7 86 -6 21.1
23:55 1012 29.88 841 24.83 -4.1 24.6 87 -6 21.1
24:00 1012 29.88 841 24.83 -4.1 24.6 87 -6.1 21.1